createdAt,value
2022-09-06T00:00:22.690Z,0.00
2022-09-06T00:01:22.683Z,0.00
2022-09-06T00:02:22.685Z,0.00
2022-09-06T00:03:22.658Z,0.00
2022-09-06T00:04:22.701Z,0.00
2022-09-06T00:05:22.623Z,0.00
2022-09-06T00:06:22.609Z,0.00
2022-09-06T00:07:22.609Z,0.00
2022-09-06T00:08:22.585Z,0.00
2022-09-06T00:09:22.571Z,0.00
2022-09-06T00:10:22.560Z,0.00
2022-09-06T00:11:22.545Z,0.00
2022-09-06T00:12:22.533Z,0.00
2022-09-06T00:13:22.521Z,0.00
2022-09-06T00:14:22.510Z,0.00
2022-09-06T00:15:22.495Z,0.00
2022-09-06T00:16:22.511Z,0.00
2022-09-06T00:17:22.466Z,0.00
2022-09-06T00:18:22.598Z,0.00
2022-09-06T00:19:22.440Z,0.00
2022-09-06T00:20:22.426Z,0.00
2022-09-06T00:21:22.414Z,0.00
2022-09-06T00:22:22.399Z,0.00
2022-09-06T00:23:22.387Z,0.00
2022-09-06T00:24:22.371Z,0.00
2022-09-06T00:25:22.359Z,0.00
2022-09-06T00:26:22.345Z,0.00
2022-09-06T00:27:22.332Z,0.00
2022-09-06T00:28:30.891Z,0.00
2022-09-06T00:30:26.300Z,0.00
2022-09-06T00:31:26.357Z,0.00
2022-09-06T00:33:30.716Z,0.00
2022-09-06T00:34:30.694Z,0.00
2022-09-06T00:36:35.149Z,0.00
2022-09-06T00:37:35.118Z,0.00
2022-09-06T00:39:28.582Z,0.00
2022-09-06T00:40:28.475Z,0.00
2022-09-06T00:42:32.917Z,0.00
2022-09-06T00:43:32.898Z,0.00
2022-09-06T00:45:37.349Z,0.00
2022-09-06T00:46:37.350Z,0.00
2022-09-06T00:48:41.319Z,0.00
2022-09-06T00:49:41.298Z,0.00
2022-09-06T00:51:45.749Z,0.00
2022-09-06T00:52:45.721Z,0.00
2022-09-06T00:54:49.706Z,0.00
2022-09-06T00:55:49.682Z,0.00
2022-09-06T00:57:54.119Z,0.00
2022-09-06T00:58:54.102Z,0.00
2022-09-06T01:00:58.562Z,0.00
2022-09-06T01:01:58.668Z,0.00
2022-09-06T01:03:51.664Z,0.00
2022-09-06T01:04:51.635Z,0.00
2022-09-06T01:06:56.074Z,0.00
2022-09-06T01:07:56.048Z,0.00
2022-09-06T01:09:49.432Z,0.00
2022-09-06T01:10:49.404Z,0.00
2022-09-06T01:12:53.861Z,0.00
2022-09-06T01:13:53.831Z,0.00
2022-09-06T01:15:58.332Z,0.00
2022-09-06T01:16:58.252Z,0.00
2022-09-06T01:19:02.706Z,0.00
2022-09-06T01:20:02.676Z,0.00
2022-09-06T01:22:07.121Z,0.00
2022-09-06T01:23:07.104Z,0.00
2022-09-06T01:25:11.550Z,0.00
2022-09-06T01:26:11.533Z,0.00
2022-09-06T01:28:15.975Z,0.00
2022-09-06T01:29:15.950Z,0.00
2022-09-06T01:31:20.426Z,0.00
2022-09-06T01:32:20.382Z,0.00
2022-09-06T01:34:24.839Z,0.00
2022-09-06T01:35:24.809Z,0.00
2022-09-06T01:37:28.776Z,0.00
2022-09-06T01:38:28.758Z,0.00
2022-09-06T01:40:32.734Z,0.00
2022-09-06T01:41:32.698Z,0.00
2022-09-06T01:43:37.153Z,0.00
2022-09-06T01:44:37.121Z,0.00
2022-09-06T01:46:42.577Z,0.00
2022-09-06T01:47:42.557Z,0.00
2022-09-06T01:49:35.926Z,0.00
2022-09-06T01:50:35.900Z,0.00
2022-09-06T01:52:40.332Z,0.00
2022-09-06T01:53:40.313Z,0.00
2022-09-06T01:55:44.302Z,0.00
2022-09-06T01:56:44.275Z,0.00
2022-09-06T01:58:48.728Z,0.00
2022-09-06T01:59:48.695Z,0.00
2022-09-06T02:01:53.217Z,0.00
2022-09-06T02:02:53.178Z,0.00
2022-09-06T02:04:57.111Z,0.00
2022-09-06T02:05:57.079Z,0.00
2022-09-06T02:08:01.093Z,0.00
2022-09-06T02:09:01.071Z,0.00
2022-09-06T02:11:05.528Z,0.00
2022-09-06T02:12:05.492Z,0.00
2022-09-06T02:14:09.947Z,0.00
2022-09-06T02:15:09.920Z,0.00
2022-09-06T02:17:15.376Z,0.00
2022-09-06T02:18:15.356Z,0.00
2022-09-06T02:20:08.742Z,0.00
2022-09-06T02:21:08.711Z,0.00
2022-09-06T02:23:13.155Z,0.00
2022-09-06T02:24:13.135Z,0.00
2022-09-06T02:26:17.103Z,0.00
2022-09-06T02:27:17.075Z,0.00
2022-09-06T02:29:22.540Z,0.00
2022-09-06T02:30:22.519Z,0.00
2022-09-06T02:32:26.956Z,0.00
2022-09-06T02:33:26.937Z,0.00
2022-09-06T02:35:31.393Z,0.00
2022-09-06T02:36:31.360Z,0.00
2022-09-06T02:38:35.345Z,0.00
2022-09-06T02:39:35.352Z,0.00
2022-09-06T02:41:39.781Z,0.00
2022-09-06T02:42:39.749Z,0.00
2022-09-06T02:44:44.205Z,0.00
2022-09-06T02:45:44.260Z,0.00
2022-09-06T02:47:48.142Z,0.00
2022-09-06T02:48:48.129Z,0.00
2022-09-06T02:50:52.114Z,0.00
2022-09-06T02:51:52.083Z,0.00
2022-09-06T02:53:56.080Z,0.00
2022-09-06T02:54:56.065Z,0.00
2022-09-06T02:57:01.529Z,0.00
2022-09-06T02:58:01.497Z,0.00
2022-09-06T02:59:54.881Z,0.00
2022-09-06T03:00:54.891Z,0.00
2022-09-06T03:02:59.298Z,0.00
2022-09-06T03:03:59.275Z,0.00
2022-09-06T03:06:03.254Z,0.00
2022-09-06T03:07:03.225Z,0.00
2022-09-06T03:08:03.213Z,0.00
2022-09-06T03:09:03.200Z,0.00
2022-09-06T03:10:03.199Z,0.00
2022-09-06T03:11:03.173Z,0.00
2022-09-06T03:12:03.171Z,0.00
2022-09-06T03:13:03.149Z,0.00
2022-09-06T03:14:03.138Z,0.00
2022-09-06T03:15:03.124Z,0.00
2022-09-06T03:16:03.110Z,0.00
2022-09-06T03:17:03.146Z,0.00
2022-09-06T03:18:03.103Z,0.00
2022-09-06T03:19:03.072Z,0.00
2022-09-06T03:20:03.061Z,0.00
2022-09-06T03:21:03.056Z,0.00
2022-09-06T03:22:03.035Z,0.00
2022-09-06T03:23:03.022Z,0.00
2022-09-06T03:24:03.012Z,0.00
2022-09-06T03:25:03.004Z,0.00
2022-09-06T03:26:02.984Z,0.00
2022-09-06T03:27:02.970Z,0.00
2022-09-06T03:28:02.958Z,0.00
2022-09-06T03:29:02.947Z,0.00
2022-09-06T03:30:02.950Z,0.00
2022-09-06T03:31:02.998Z,0.00
2022-09-06T03:32:02.908Z,0.00
2022-09-06T03:33:03.158Z,0.00
2022-09-06T03:34:02.887Z,0.00
2022-09-06T03:35:02.871Z,0.00
2022-09-06T03:36:02.856Z,0.00
2022-09-06T03:37:02.845Z,0.00
2022-09-06T03:38:02.971Z,0.00
2022-09-06T03:39:02.818Z,0.00
2022-09-06T03:40:02.916Z,0.00
2022-09-06T03:41:02.794Z,0.00
2022-09-06T03:42:02.781Z,0.00
2022-09-06T03:43:02.768Z,0.00
2022-09-06T03:44:02.754Z,0.00
2022-09-06T03:45:02.742Z,0.00
2022-09-06T03:46:02.854Z,0.00
2022-09-06T03:47:02.718Z,0.00
2022-09-06T03:48:02.705Z,0.00
2022-09-06T03:49:02.691Z,0.00
2022-09-06T03:50:02.693Z,0.00
2022-09-06T03:51:02.662Z,0.00
2022-09-06T03:52:02.653Z,0.00
2022-09-06T03:53:02.640Z,0.00
2022-09-06T03:54:02.631Z,0.00
2022-09-06T03:55:02.616Z,0.00
2022-09-06T03:56:02.599Z,0.00
2022-09-06T03:57:02.585Z,0.00
2022-09-06T03:58:02.574Z,0.00
2022-09-06T03:59:02.559Z,0.00
2022-09-06T04:00:02.547Z,0.00
2022-09-06T04:01:02.573Z,0.00
2022-09-06T04:02:02.579Z,0.00
2022-09-06T04:03:02.510Z,0.00
2022-09-06T04:04:02.498Z,0.00
2022-09-06T04:05:02.487Z,0.00
2022-09-06T04:06:02.470Z,0.00
2022-09-06T04:07:02.451Z,0.00
2022-09-06T04:08:02.453Z,0.00
2022-09-06T04:09:02.434Z,0.00
2022-09-06T04:10:02.433Z,0.00
2022-09-06T04:11:02.407Z,0.00
2022-09-06T04:12:02.387Z,0.00
2022-09-06T04:13:02.373Z,0.00
2022-09-06T04:14:02.362Z,0.00
2022-09-06T04:15:02.348Z,0.00
2022-09-06T04:16:02.333Z,0.00
2022-09-06T04:17:02.394Z,0.00
2022-09-06T04:18:06.007Z,0.00
2022-09-06T04:19:02.293Z,0.00
2022-09-06T04:20:02.279Z,0.00
2022-09-06T04:21:02.276Z,0.00
2022-09-06T04:22:02.255Z,0.00
2022-09-06T04:23:02.238Z,0.00
2022-09-06T04:24:02.227Z,0.00
2022-09-06T04:25:02.215Z,0.00
2022-09-06T04:26:02.200Z,0.00
2022-09-06T04:27:02.183Z,0.00
2022-09-06T04:28:02.172Z,0.00
2022-09-06T04:29:02.158Z,0.00
2022-09-06T04:30:02.152Z,4.00
2022-09-06T04:31:04.703Z,4.00
2022-09-06T04:32:02.182Z,4.00
2022-09-06T04:33:02.105Z,0.00
2022-09-06T04:34:02.096Z,0.00
2022-09-06T04:35:02.077Z,4.00
2022-09-06T04:36:02.067Z,4.00
2022-09-06T04:37:02.050Z,8.00
2022-09-06T04:38:02.044Z,4.00
2022-09-06T04:39:02.022Z,4.00
2022-09-06T04:40:02.110Z,8.00
2022-09-06T04:41:01.999Z,8.00
2022-09-06T04:42:01.985Z,8.00
2022-09-06T04:43:01.971Z,8.00
2022-09-06T04:44:01.959Z,12.00
2022-09-06T04:45:01.943Z,8.00
2022-09-06T04:46:02.083Z,12.00
2022-09-06T04:47:04.322Z,16.00
2022-09-06T04:48:01.901Z,16.00
2022-09-06T04:49:01.891Z,16.00
2022-09-06T04:50:01.880Z,20.00
2022-09-06T04:51:01.862Z,24.00
2022-09-06T04:52:01.848Z,24.00
2022-09-06T04:53:01.845Z,28.00
2022-09-06T04:54:01.898Z,28.00
2022-09-06T04:55:01.809Z,32.00
2022-09-06T04:56:01.795Z,36.00
2022-09-06T04:57:01.782Z,40.00
2022-09-06T04:58:01.779Z,44.00
2022-09-06T04:59:01.756Z,52.00
2022-09-06T05:00:01.742Z,60.00
2022-09-06T05:01:01.784Z,64.00
2022-09-06T05:02:01.754Z,68.00
2022-09-06T05:03:01.703Z,72.00
2022-09-06T05:04:01.687Z,80.00
2022-09-06T05:05:01.675Z,88.00
2022-09-06T05:06:01.662Z,88.00
2022-09-06T05:07:01.648Z,96.00
2022-09-06T05:08:01.638Z,104.00
2022-09-06T05:09:01.626Z,108.00
2022-09-06T05:10:01.613Z,112.00
2022-09-06T05:11:01.596Z,116.00
2022-09-06T05:12:01.581Z,120.00
2022-09-06T05:13:01.577Z,124.00
2022-09-06T05:14:01.559Z,128.00
2022-09-06T05:15:01.554Z,136.00
2022-09-06T05:16:01.595Z,140.00
2022-09-06T05:17:01.519Z,144.00
2022-09-06T05:18:01.508Z,152.00
2022-09-06T05:19:01.489Z,156.00
2022-09-06T05:20:01.475Z,160.00
2022-09-06T05:21:01.467Z,168.00
2022-09-06T05:22:01.448Z,172.00
2022-09-06T05:23:01.436Z,180.00
2022-09-06T05:24:01.427Z,188.00
2022-09-06T05:25:01.408Z,196.00
2022-09-06T05:26:01.401Z,200.00
2022-09-06T05:27:01.384Z,212.00
2022-09-06T05:28:01.371Z,216.00
2022-09-06T05:29:01.363Z,224.00
2022-09-06T05:30:01.343Z,232.00
2022-09-06T05:31:01.332Z,240.00
2022-09-06T05:32:01.364Z,248.00
2022-09-06T05:33:01.307Z,260.00
2022-09-06T05:34:01.293Z,264.00
2022-09-06T05:35:01.283Z,276.00
2022-09-06T05:36:01.276Z,288.00
2022-09-06T05:37:01.256Z,296.00
2022-09-06T05:38:01.242Z,304.00
2022-09-06T05:39:01.231Z,312.00
2022-09-06T05:40:01.404Z,324.00
2022-09-06T05:41:01.200Z,332.00
2022-09-06T05:42:01.184Z,348.00
2022-09-06T05:43:01.170Z,384.00
2022-09-06T05:44:01.192Z,424.00
2022-09-06T05:45:01.189Z,448.00
2022-09-06T05:46:01.181Z,416.00
2022-09-06T05:47:01.146Z,412.00
2022-09-06T05:48:01.104Z,440.00
2022-09-06T05:49:01.147Z,440.00
2022-09-06T05:50:01.079Z,480.00
2022-09-06T05:51:01.066Z,572.00
2022-09-06T05:52:01.050Z,672.00
2022-09-06T05:53:01.045Z,784.00
2022-09-06T05:54:01.027Z,716.00
2022-09-06T05:55:01.012Z,840.00
2022-09-06T05:56:01.080Z,888.00
2022-09-06T05:57:00.990Z,836.00
2022-09-06T05:58:00.970Z,944.00
2022-09-06T05:59:01.011Z,944.00
2022-09-06T06:00:00.945Z,960.00
2022-09-06T06:01:01.073Z,984.00
2022-09-06T06:02:03.368Z,964.00
2022-09-06T06:03:00.909Z,1036.00
2022-09-06T06:04:00.895Z,1044.00
2022-09-06T06:05:00.912Z,1048.00
2022-09-06T06:06:00.865Z,1068.00
2022-09-06T06:07:00.902Z,1080.00
2022-09-06T06:08:00.880Z,1088.00
2022-09-06T06:09:00.830Z,1108.00
2022-09-06T06:10:00.816Z,1104.00
2022-09-06T06:11:00.820Z,1084.00
2022-09-06T06:12:00.788Z,1160.00
2022-09-06T06:13:00.793Z,1176.00
2022-09-06T06:14:00.761Z,1180.00
2022-09-06T06:15:00.857Z,1204.00
2022-09-06T06:16:00.762Z,1224.00
2022-09-06T06:17:00.810Z,1248.00
2022-09-06T06:18:00.713Z,1272.00
2022-09-06T06:19:00.727Z,1308.00
2022-09-06T06:20:00.687Z,1312.00
2022-09-06T06:21:00.677Z,1376.00
2022-09-06T06:22:00.659Z,1384.00
2022-09-06T06:23:00.649Z,1404.00
2022-09-06T06:24:00.638Z,1444.00
2022-09-06T06:25:00.636Z,1476.00
2022-09-06T06:26:00.614Z,1460.00
2022-09-06T06:27:00.598Z,1372.00
2022-09-06T06:28:00.594Z,1528.00
2022-09-06T06:29:00.574Z,1536.00
2022-09-06T06:30:00.561Z,1524.00
2022-09-06T06:31:00.569Z,1460.00
2022-09-06T06:32:00.632Z,1576.00
2022-09-06T06:33:02.432Z,1580.00
2022-09-06T06:34:08.222Z,1544.00
2022-09-06T06:36:04.969Z,1544.00
2022-09-06T06:37:04.943Z,1636.00
2022-09-06T06:39:09.401Z,1744.00
2022-09-06T06:40:09.437Z,1784.00
2022-09-06T06:42:13.826Z,1820.00
2022-09-06T06:43:13.798Z,1844.00
2022-09-06T06:45:18.277Z,1888.00
2022-09-06T06:46:18.295Z,1916.00
2022-09-06T06:48:22.726Z,1796.00
2022-09-06T06:49:22.688Z,1556.00
2022-09-06T06:51:27.153Z,1788.00
2022-09-06T06:52:27.120Z,1916.00
2022-09-06T06:53:27.107Z,2080.00
2022-09-06T06:54:27.095Z,1832.00
2022-09-06T06:55:27.083Z,1696.00
2022-09-06T06:56:27.077Z,1912.00
2022-09-06T06:57:27.062Z,2172.00
2022-09-06T06:58:27.174Z,2316.00
2022-09-06T06:59:27.041Z,2408.00
2022-09-06T07:00:28.371Z,2408.00
2022-09-06T07:01:27.138Z,2444.00
2022-09-06T07:02:27.062Z,2248.00
2022-09-06T07:03:26.992Z,2668.00
2022-09-06T07:04:26.986Z,2736.00
2022-09-06T07:07:29.993Z,2732.00
2022-09-06T07:08:27.049Z,2308.00
2022-09-06T07:09:27.109Z,2544.00
2022-09-06T07:10:34.469Z,2988.00
2022-09-06T07:11:26.900Z,2988.00
2022-09-06T07:12:26.890Z,3332.00
2022-09-06T07:13:26.961Z,3288.00
2022-09-06T07:14:26.872Z,3424.00
2022-09-06T07:15:26.864Z,3424.00
2022-09-06T07:16:26.880Z,3188.00
2022-09-06T07:17:26.837Z,3244.00
2022-09-06T07:18:26.827Z,3072.00
2022-09-06T07:20:27.009Z,3748.00
2022-09-06T07:21:42.187Z,3960.00
2022-09-06T07:22:26.782Z,4012.00
2022-09-06T07:24:26.762Z,4176.00
2022-09-06T07:25:26.753Z,4232.00
2022-09-06T07:26:26.744Z,4304.00
2022-09-06T07:28:26.775Z,4308.00
2022-09-06T07:29:26.713Z,4572.00
2022-09-06T07:30:26.702Z,4428.00
2022-09-06T07:32:26.682Z,4612.00
2022-09-06T07:33:26.710Z,4528.00
2022-09-06T07:34:26.664Z,4700.00
2022-09-06T07:35:26.652Z,5232.00
2022-09-06T07:36:26.643Z,5580.00
2022-09-06T07:37:26.633Z,5824.00
2022-09-06T07:38:26.624Z,5840.00
2022-09-06T07:39:26.662Z,5880.00
2022-09-06T07:40:26.609Z,6032.00
2022-09-06T07:41:26.594Z,6032.00
2022-09-06T07:42:26.588Z,3988.00
2022-09-06T07:43:26.610Z,3592.00
2022-09-06T07:44:26.567Z,5604.00
2022-09-06T07:45:26.558Z,5748.00
2022-09-06T07:46:26.560Z,6196.00
2022-09-06T07:48:26.563Z,6860.00
2022-09-06T07:49:26.527Z,5492.00
2022-09-06T07:51:26.503Z,7668.00
2022-09-06T07:53:31.193Z,2504.00
2022-09-06T07:54:30.421Z,2336.00
2022-09-06T07:55:26.469Z,3808.00
2022-09-06T07:56:26.458Z,2372.00
2022-09-06T07:57:26.451Z,2544.00
2022-09-06T07:58:26.440Z,7828.00
2022-09-06T07:59:26.431Z,7908.00
2022-09-06T08:00:26.422Z,8476.00
2022-09-06T08:01:26.442Z,9756.00
2022-09-06T08:02:26.458Z,9116.00
2022-09-06T08:03:26.437Z,10308.00
2022-09-06T08:04:26.388Z,10316.00
2022-09-06T08:06:26.371Z,10456.00
2022-09-06T08:07:41.776Z,10976.00
2022-09-06T08:09:26.344Z,11096.00
2022-09-06T08:10:26.335Z,11152.00
2022-09-06T08:11:26.330Z,11796.00
2022-09-06T08:12:26.321Z,11384.00
2022-09-06T08:13:26.334Z,11664.00
2022-09-06T08:14:26.310Z,9736.00
2022-09-06T08:15:26.297Z,10516.00
2022-09-06T08:16:26.334Z,10536.00
2022-09-06T08:17:26.284Z,10616.00
2022-09-06T08:18:26.273Z,11016.00
2022-09-06T08:19:26.263Z,11516.00
2022-09-06T08:20:26.256Z,12044.00
2022-09-06T08:21:26.249Z,11696.00
2022-09-06T08:22:26.242Z,10224.00
2022-09-06T08:23:26.319Z,12112.00
2022-09-06T08:24:26.229Z,11740.00
2022-09-06T08:25:26.221Z,12416.00
2022-09-06T08:26:26.213Z,11844.00
2022-09-06T08:27:26.208Z,10524.00
2022-09-06T08:28:28.774Z,13060.00
2022-09-06T08:29:26.194Z,13204.00
2022-09-06T08:30:26.206Z,10692.00
2022-09-06T08:31:26.219Z,10188.00
2022-09-06T08:32:26.177Z,10680.00
2022-09-06T08:33:26.195Z,11640.00
2022-09-06T08:34:26.166Z,11432.00
2022-09-06T08:35:26.154Z,12084.00
2022-09-06T08:36:26.150Z,12972.00
2022-09-06T08:37:26.142Z,13392.00
2022-09-06T08:38:26.137Z,12904.00
2022-09-06T08:39:26.180Z,12700.00
2022-09-06T08:40:26.125Z,11620.00
2022-09-06T08:41:26.132Z,10440.00
2022-09-06T08:42:26.116Z,11440.00
2022-09-06T08:43:26.142Z,12512.00
2022-09-06T08:45:26.100Z,13580.00
2022-09-06T08:46:26.140Z,13812.00
2022-09-06T08:47:26.083Z,12816.00
2022-09-06T08:48:26.167Z,13340.00
2022-09-06T08:49:26.073Z,12760.00
2022-09-06T08:50:26.069Z,12416.00
2022-09-06T08:51:26.064Z,12920.00
2022-09-06T08:52:26.059Z,11168.00
2022-09-06T08:53:26.054Z,10504.00
2022-09-06T08:54:26.050Z,10600.00
2022-09-06T08:55:26.044Z,11960.00
2022-09-06T08:56:26.041Z,12672.00
2022-09-06T08:57:26.031Z,13092.00
2022-09-06T08:58:26.079Z,13192.00
2022-09-06T08:59:26.022Z,12456.00
2022-09-06T09:00:26.103Z,11856.00
2022-09-06T09:01:26.013Z,12104.00
2022-09-06T09:02:26.066Z,11136.00
2022-09-06T09:03:26.014Z,12000.00
2022-09-06T09:04:26.003Z,12456.00
2022-09-06T09:05:26.011Z,12792.00
2022-09-06T09:06:26.010Z,13072.00
2022-09-06T09:07:25.989Z,12852.00
2022-09-06T09:08:25.989Z,12940.00
2022-09-06T09:09:25.978Z,12628.00
2022-09-06T09:10:25.972Z,12564.00
2022-09-06T09:11:25.972Z,12804.00
2022-09-06T09:12:25.962Z,12336.00
2022-09-06T09:13:25.987Z,12528.00
2022-09-06T09:14:25.959Z,13164.00
2022-09-06T09:15:25.948Z,13196.00
2022-09-06T09:16:26.019Z,13184.00
2022-09-06T09:17:25.944Z,13108.00
2022-09-06T09:18:25.981Z,13124.00
2022-09-06T09:19:25.937Z,13148.00
2022-09-06T09:20:25.931Z,13152.00
2022-09-06T09:21:30.424Z,13296.00
2022-09-06T09:22:25.921Z,12392.00
2022-09-06T09:23:25.921Z,12304.00
2022-09-06T09:24:25.916Z,12516.00
2022-09-06T09:25:25.909Z,12788.00
2022-09-06T09:26:25.911Z,12796.00
2022-09-06T09:27:25.902Z,12556.00
2022-09-06T09:28:25.914Z,12992.00
2022-09-06T09:29:29.500Z,13064.00
2022-09-06T09:31:25.933Z,12768.00
2022-09-06T09:32:25.889Z,12808.00
2022-09-06T09:33:25.940Z,12712.00
2022-09-06T09:34:25.880Z,12668.00
2022-09-06T09:35:25.878Z,13004.00
2022-09-06T09:36:25.876Z,13140.00
2022-09-06T09:38:25.922Z,13168.00
2022-09-06T09:39:25.890Z,13248.00
2022-09-06T09:40:25.869Z,13276.00
2022-09-06T09:41:25.860Z,10884.00
2022-09-06T09:42:25.859Z,12200.00
2022-09-06T09:43:25.857Z,12700.00
2022-09-06T09:44:25.854Z,12820.00
2022-09-06T09:45:25.850Z,13132.00
2022-09-06T09:46:25.892Z,13168.00
2022-09-06T09:47:25.846Z,13168.00
2022-09-06T09:48:25.913Z,13176.00
2022-09-06T09:49:25.839Z,13124.00
2022-09-06T09:50:25.851Z,12792.00
2022-09-06T09:51:27.654Z,12548.00
2022-09-06T09:52:25.834Z,12548.00
2022-09-06T09:53:25.832Z,12808.00
2022-09-06T09:54:25.832Z,12748.00
2022-09-06T09:55:25.827Z,13048.00
2022-09-06T09:56:25.823Z,13216.00
2022-09-06T09:57:25.837Z,13168.00
2022-09-06T09:58:25.889Z,13172.00
2022-09-06T09:59:25.819Z,13024.00
2022-09-06T10:00:25.871Z,13036.00
2022-09-06T10:01:25.812Z,13140.00
2022-09-06T10:02:25.811Z,13100.00
2022-09-06T10:03:26.074Z,13084.00
2022-09-06T10:05:25.814Z,13136.00
2022-09-06T10:07:25.796Z,13196.00
2022-09-06T10:08:25.794Z,13216.00
2022-09-06T10:09:25.794Z,13116.00
2022-09-06T10:10:25.791Z,13112.00
2022-09-06T10:11:25.787Z,13256.00
2022-09-06T10:12:25.786Z,13260.00
2022-09-06T10:13:25.785Z,13312.00
2022-09-06T10:14:25.784Z,13368.00
2022-09-06T10:15:25.780Z,13292.00
2022-09-06T10:16:25.825Z,13288.00
2022-09-06T10:17:25.783Z,13296.00
2022-09-06T10:18:25.798Z,13368.00
2022-09-06T10:19:25.769Z,13384.00
2022-09-06T10:20:25.774Z,13384.00
2022-09-06T10:21:25.769Z,13404.00
2022-09-06T10:22:25.768Z,13436.00
2022-09-06T10:25:25.763Z,13508.00
2022-09-06T10:26:25.768Z,13516.00
2022-09-06T10:27:25.758Z,13532.00
2022-09-06T10:28:25.797Z,13556.00
2022-09-06T10:29:25.759Z,13640.00
2022-09-06T10:30:25.758Z,13680.00
2022-09-06T10:31:25.773Z,13708.00
2022-09-06T10:32:30.381Z,13728.00
2022-09-06T10:33:25.749Z,13708.00
2022-09-06T10:34:25.749Z,13728.00
2022-09-06T10:35:25.749Z,13752.00
2022-09-06T10:36:25.743Z,13764.00
2022-09-06T10:37:25.745Z,13836.00
2022-09-06T10:38:25.801Z,13848.00
2022-09-06T10:39:25.764Z,13852.00
2022-09-06T10:40:25.738Z,13908.00
2022-09-06T10:41:25.735Z,13956.00
2022-09-06T10:42:25.735Z,13972.00
2022-09-06T10:43:25.733Z,14052.00
2022-09-06T10:44:25.733Z,14108.00
2022-09-06T10:45:25.733Z,14096.00
2022-09-06T10:46:25.804Z,14128.00
2022-09-06T10:47:25.727Z,14324.00
2022-09-06T10:48:25.819Z,14412.00
2022-09-06T10:49:25.726Z,14472.00
2022-09-06T10:50:25.727Z,14504.00
2022-09-06T10:51:25.723Z,14556.00
2022-09-06T10:52:25.724Z,14540.00
2022-09-06T10:53:25.725Z,14520.00
2022-09-06T10:54:25.726Z,14556.00
2022-09-06T10:55:25.728Z,14624.00
2022-09-06T10:56:25.721Z,14724.00
2022-09-06T10:58:25.903Z,14808.00
2022-09-06T10:59:41.151Z,14948.00
2022-09-06T11:00:25.722Z,14956.00
2022-09-06T11:01:25.756Z,14972.00
2022-09-06T11:02:25.866Z,15008.00
2022-09-06T11:04:25.825Z,15024.00
2022-09-06T11:05:41.081Z,15032.00
2022-09-06T11:06:28.211Z,15132.00
2022-09-06T11:07:25.832Z,15276.00
2022-09-06T11:09:25.714Z,15456.00
2022-09-06T11:10:25.721Z,15524.00
2022-09-06T11:11:25.717Z,15492.00
2022-09-06T11:12:25.795Z,15556.00
2022-09-06T11:13:25.715Z,15592.00
2022-09-06T11:14:25.718Z,15624.00
2022-09-06T11:15:25.729Z,15628.00
2022-09-06T11:16:25.764Z,15708.00
2022-09-06T11:17:25.825Z,15856.00
2022-09-06T11:18:25.764Z,15916.00
2022-09-06T11:19:25.713Z,16128.00
2022-09-06T11:20:31.267Z,16160.00
2022-09-06T11:21:25.713Z,16256.00
2022-09-06T11:22:25.720Z,16384.00
2022-09-06T11:23:25.763Z,16384.00
2022-09-06T11:24:25.715Z,16448.00
2022-09-06T11:25:25.735Z,16480.00
2022-09-06T11:26:25.721Z,16576.00
2022-09-06T11:27:25.712Z,16608.00
2022-09-06T11:28:25.718Z,16608.00
2022-09-06T11:29:25.718Z,16640.00
2022-09-06T11:30:25.724Z,16704.00
2022-09-06T11:32:25.719Z,16768.00
2022-09-06T11:33:25.888Z,16864.00
2022-09-06T11:34:25.720Z,16896.00
2022-09-06T11:35:25.727Z,16960.00
2022-09-06T11:36:25.722Z,17024.00
2022-09-06T11:37:25.722Z,17088.00
2022-09-06T11:38:25.724Z,17216.00
2022-09-06T11:41:25.725Z,17376.00
2022-09-06T11:42:25.729Z,17504.00
2022-09-06T11:43:25.768Z,17536.00
2022-09-06T11:44:25.728Z,17600.00
2022-09-06T11:45:25.734Z,17632.00
2022-09-06T11:46:25.749Z,17472.00
2022-09-06T11:47:25.730Z,17632.00
2022-09-06T11:48:25.733Z,17664.00
2022-09-06T11:49:25.730Z,17696.00
2022-09-06T11:50:25.741Z,17728.00
2022-09-06T11:51:25.731Z,17856.00
2022-09-06T11:52:25.737Z,17984.00
2022-09-06T11:53:25.808Z,18048.00
2022-09-06T11:54:25.740Z,18080.00
2022-09-06T11:55:25.740Z,18144.00
2022-09-06T11:56:25.736Z,18208.00
2022-09-06T11:57:25.737Z,18208.00
2022-09-06T11:58:25.738Z,18272.00
2022-09-06T11:59:25.737Z,18336.00
2022-09-06T12:00:25.740Z,18432.00
2022-09-06T12:01:25.738Z,18496.00
2022-09-06T12:02:25.846Z,18560.00
2022-09-06T12:04:25.738Z,18752.00
2022-09-06T12:05:25.743Z,18816.00
2022-09-06T12:06:25.744Z,18880.00
2022-09-06T12:07:25.743Z,18976.00
2022-09-06T12:08:25.838Z,19040.00
2022-09-06T12:09:25.745Z,19072.00
2022-09-06T12:10:25.746Z,19200.00
2022-09-06T12:11:30.089Z,19200.00
2022-09-06T12:12:25.751Z,19328.00
2022-09-06T12:13:25.746Z,19360.00
2022-09-06T12:14:25.752Z,19424.00
2022-09-06T12:15:25.747Z,19520.00
2022-09-06T12:16:25.784Z,19488.00
2022-09-06T12:17:25.753Z,19584.00
2022-09-06T12:18:25.858Z,19648.00
2022-09-06T12:19:25.752Z,19680.00
2022-09-06T12:20:25.757Z,19712.00
2022-09-06T12:21:25.755Z,19712.00
2022-09-06T12:22:25.756Z,19712.00
2022-09-06T12:23:25.759Z,19776.00
2022-09-06T12:24:25.756Z,19808.00
2022-09-06T12:25:25.758Z,19872.00
2022-09-06T12:26:25.762Z,19904.00
2022-09-06T12:27:25.761Z,19968.00
2022-09-06T12:28:25.813Z,20000.00
2022-09-06T12:29:25.771Z,20000.00
2022-09-06T12:30:25.761Z,20032.00
2022-09-06T12:31:25.795Z,20064.00
2022-09-06T12:32:25.761Z,20128.00
2022-09-06T12:33:25.767Z,20160.00
2022-09-06T12:34:25.765Z,20128.00
2022-09-06T12:37:31.308Z,20320.00
2022-09-06T12:38:31.289Z,20352.00
2022-09-06T12:40:35.778Z,20384.00
2022-09-06T12:41:37.455Z,20256.00
2022-09-06T12:43:40.247Z,20384.00
2022-09-06T12:44:40.242Z,20352.00
2022-09-06T12:46:33.739Z,20448.00
2022-09-06T12:47:33.659Z,20480.00
2022-09-06T12:49:38.141Z,20448.00
2022-09-06T12:50:38.151Z,20544.00
2022-09-06T12:52:42.649Z,20576.00
2022-09-06T12:53:42.635Z,20576.00
2022-09-06T12:55:47.134Z,20448.00
2022-09-06T12:56:47.118Z,20416.00
2022-09-06T12:58:51.625Z,20288.00
2022-09-06T12:59:51.641Z,20224.00
2022-09-06T13:01:57.244Z,20160.00
2022-09-06T13:02:57.256Z,20032.00
2022-09-06T13:05:02.427Z,20160.00
2022-09-06T13:06:02.421Z,20064.00
2022-09-06T13:08:06.928Z,19904.00
2022-09-06T13:09:06.907Z,19872.00
2022-09-06T13:11:11.390Z,19648.00
2022-09-06T13:12:11.375Z,19584.00
2022-09-06T13:14:15.848Z,19424.00
2022-09-06T13:15:15.846Z,19296.00
2022-09-06T13:17:20.351Z,19104.00
2022-09-06T13:18:20.342Z,19008.00
2022-09-06T13:20:24.838Z,18816.00
2022-09-06T13:21:24.818Z,18720.00
2022-09-06T13:23:29.318Z,18400.00
2022-09-06T13:24:29.340Z,18368.00
2022-09-06T13:26:22.711Z,18208.00
2022-09-06T13:27:22.691Z,18144.00
2022-09-06T13:29:27.676Z,17824.00
2022-09-06T13:30:27.169Z,17760.00
2022-09-06T13:32:31.683Z,17408.00
2022-09-06T13:33:31.655Z,17184.00
2022-09-06T13:35:36.151Z,16800.00
2022-09-06T13:36:36.171Z,16640.00
2022-09-06T13:38:41.462Z,16512.00
2022-09-06T13:39:41.501Z,16480.00
2022-09-06T13:41:45.950Z,16288.00
2022-09-06T13:42:45.930Z,16128.00
2022-09-06T13:44:50.420Z,15936.00
2022-09-06T13:45:50.433Z,15700.00
2022-09-06T13:48:07.903Z,15488.00
2022-09-06T13:48:54.899Z,15376.00
2022-09-06T13:51:00.430Z,15100.00
2022-09-06T13:52:00.396Z,14928.00
2022-09-06T13:54:04.886Z,14684.00
2022-09-06T13:55:04.880Z,14536.00
2022-09-06T13:57:09.389Z,14152.00
2022-09-06T13:58:09.366Z,13988.00
2022-09-06T13:59:09.366Z,13440.00
2022-09-06T14:00:09.370Z,13544.00
2022-09-06T14:01:09.435Z,13372.00
2022-09-06T14:02:09.426Z,13244.00
2022-09-06T14:03:09.371Z,12992.00
2022-09-06T14:04:09.372Z,11636.00
2022-09-06T14:05:09.372Z,12776.00
2022-09-06T14:06:09.377Z,12620.00
2022-09-06T14:07:09.378Z,12480.00
2022-09-06T14:08:09.385Z,12296.00
2022-09-06T14:09:09.915Z,12116.00
2022-09-06T14:10:09.382Z,11960.00
2022-09-06T14:11:09.380Z,11852.00
2022-09-06T14:12:09.383Z,11692.00
2022-09-06T14:13:09.399Z,11080.00
2022-09-06T14:14:09.402Z,10812.00
2022-09-06T14:15:09.385Z,10788.00